sensor_id;sensor_type;location;lat;lon;timestamp;pressure;altitude;pressure_sealevel;temperature;humidity
36092;BME280;22147;52.388;13.390;2023-04-20T00:00:54;101455.88;;;4.73;100.00
36092;BME280;22147;52.388;13.390;2023-04-20T00:03:26;101467.13;;;4.71;100.00
36092;BME280;22147;52.388;13.390;2023-04-20T00:05:58;101458.59;;;4.67;100.00
36092;BME280;22147;52.388;13.390;2023-04-20T00:08:31;101455.56;;;4.69;100.00
36092;BME280;22147;52.388;13.390;2023-04-20T00:11:02;101459.44;;;4.78;100.00
36092;BME280;22147;52.388;13.390;2023-04-20T00:13:32;101458.63;;;4.78;100.00
36092;BME280;22147;52.388;13.390;2023-04-20T00:16:02;101463.34;;;4.87;100.00
36092;BME280;22147;52.388;13.390;2023-04-20T00:18:33;101467.44;;;4.75;100.00
36092;BME280;22147;52.388;13.390;2023-04-20T00:21:03;101461.38;;;4.78;100.00
36092;BME280;22147;52.388;13.390;2023-04-20T00:23:34;101458.91;;;4.86;100.00
36092;BME280;22147;52.388;13.390;2023-04-20T00:26:04;101457.50;;;4.74;100.00
36092;BME280;22147;52.388;13.390;2023-04-20T00:28:35;101456.13;;;4.76;100.00
36092;BME280;22147;52.388;13.390;2023-04-20T00:31:05;101453.41;;;4.81;100.00
36092;BME280;22147;52.388;13.390;2023-04-20T00:33:35;101451.75;;;4.85;100.00
36092;BME280;22147;52.388;13.390;2023-04-20T00:36:06;101460.31;;;4.89;100.00
36092;BME280;22147;52.388;13.390;2023-04-20T00:38:34;101465.56;;;5.06;100.00
36092;BME280;22147;52.388;13.390;2023-04-20T00:41:02;101461.44;;;5.08;100.00
36092;BME280;22147;52.388;13.390;2023-04-20T00:43:31;101452.06;;;4.94;100.00
36092;BME280;22147;52.388;13.390;2023-04-20T00:45:59;101444.31;;;4.86;100.00
36092;BME280;22147;52.388;13.390;2023-04-20T00:48:28;101444.88;;;4.83;100.00
36092;BME280;22147;52.388;13.390;2023-04-20T00:50:56;101444.59;;;4.79;100.00
36092;BME280;22147;52.388;13.390;2023-04-20T00:53:24;101444.34;;;4.91;100.00
36092;BME280;22147;52.388;13.390;2023-04-20T00:55:53;101448.47;;;4.83;100.00
36092;BME280;22147;52.388;13.390;2023-04-20T00:58:21;101445.41;;;4.80;100.00
36092;BME280;22147;52.388;13.390;2023-04-20T01:00:49;101449.84;;;4.91;100.00
36092;BME280;22147;52.388;13.390;2023-04-20T01:03:18;101444.63;;;4.89;100.00
36092;BME280;22147;52.388;13.390;2023-04-20T01:05:46;101447.91;;;4.81;100.00
36092;BME280;22147;52.388;13.390;2023-04-20T01:08:15;101441.56;;;4.76;100.00
36092;BME280;22147;52.388;13.390;2023-04-20T01:10:45;101438.53;;;4.77;100.00
36092;BME280;22147;52.388;13.390;2023-04-20T01:13:14;101440.16;;;4.68;100.00
36092;BME280;22147;52.388;13.390;2023-04-20T01:15:43;101442.34;;;4.61;100.00
36092;BME280;22147;52.388;13.390;2023-04-20T01:18:11;101445.06;;;4.51;100.00
36092;BME280;22147;52.388;13.390;2023-04-20T01:20:40;101442.81;;;4.37;100.00
36092;BME280;22147;52.388;13.390;2023-04-20T01:23:08;101443.06;;;4.25;100.00
36092;BME280;22147;52.388;13.390;2023-04-20T01:25:38;101437.22;;;4.17;100.00
36092;BME280;22147;52.388;13.390;2023-04-20T01:28:09;101441.06;;;4.16;100.00
36092;BME280;22147;52.388;13.390;2023-04-20T01:30:41;101442.72;;;4.17;100.00
36092;BME280;22147;52.388;13.390;2023-04-20T01:33:11;101444.06;;;4.14;100.00
36092;BME280;22147;52.388;13.390;2023-04-20T01:35:41;101445.25;;;4.23;100.00
36092;BME280;22147;52.388;13.390;2023-04-20T01:38:21;101437.25;;;4.22;100.00
36092;BME280;22147;52.388;13.390;2023-04-20T01:40:54;101439.44;;;4.25;100.00
36092;BME280;22147;52.388;13.390;2023-04-20T01:43:24;101430.63;;;4.23;100.00
36092;BME280;22147;52.388;13.390;2023-04-20T01:45:55;101425.13;;;4.23;100.00
36092;BME280;22147;52.388;13.390;2023-04-20T01:48:25;101427.88;;;4.18;100.00
36092;BME280;22147;52.388;13.390;2023-04-20T01:50:55;101427.31;;;4.16;100.00
36092;BME280;22147;52.388;13.390;2023-04-20T01:53:26;101439.69;;;4.18;100.00
36092;BME280;22147;52.388;13.390;2023-04-20T01:55:58;101434.81;;;4.31;100.00
36092;BME280;22147;52.388;13.390;2023-04-20T01:58:28;101445.84;;;4.41;100.00
36092;BME280;22147;52.388;13.390;2023-04-20T02:01:01;101446.94;;;4.40;100.00
36092;BME280;22147;52.388;13.390;2023-04-20T02:03:31;101445.03;;;4.40;100.00
36092;BME280;22147;52.388;13.390;2023-04-20T02:06:02;101439.84;;;4.49;100.00
36092;BME280;22147;52.388;13.390;2023-04-20T02:08:33;101434.34;;;4.49;100.00
36092;BME280;22147;52.388;13.390;2023-04-20T02:11:03;101446.97;;;4.45;100.00
36092;BME280;22147;52.388;13.390;2023-04-20T02:13:35;101445.03;;;4.45;100.00
36092;BME280;22147;52.388;13.390;2023-04-20T02:16:05;101442.88;;;4.58;100.00
36092;BME280;22147;52.388;13.390;2023-04-20T02:18:36;101450.31;;;4.57;100.00
36092;BME280;22147;52.388;13.390;2023-04-20T02:21:05;101447.28;;;4.54;100.00
36092;BME280;22147;52.388;13.390;2023-04-20T02:23:33;101441.47;;;4.50;100.00
36092;BME280;22147;52.388;13.390;2023-04-20T02:26:01;101446.47;;;4.53;100.00
36092;BME280;22147;52.388;13.390;2023-04-20T02:28:29;101441.50;;;4.60;100.00
36092;BME280;22147;52.388;13.390;2023-04-20T02:30:58;101443.16;;;4.61;100.00
36092;BME280;22147;52.388;13.390;2023-04-20T02:33:26;101450.09;;;4.74;100.00
36092;BME280;22147;52.388;13.390;2023-04-20T02:35:55;101443.47;;;4.70;100.00
36092;BME280;22147;52.388;13.390;2023-04-20T02:38:23;101438.78;;;4.71;100.00
36092;BME280;22147;52.388;13.390;2023-04-20T02:40:52;101437.72;;;4.77;100.00
36092;BME280;22147;52.388;13.390;2023-04-20T02:43:20;101442.88;;;4.63;100.00
36092;BME280;22147;52.388;13.390;2023-04-20T02:45:48;101443.66;;;4.48;100.00
36092;BME280;22147;52.388;13.390;2023-04-20T02:48:17;101438.72;;;4.45;100.00
36092;BME280;22147;52.388;13.390;2023-04-20T02:50:45;101440.59;;;4.34;100.00
36092;BME280;22147;52.388;13.390;2023-04-20T02:53:14;101448.34;;;4.47;100.00
36092;BME280;22147;52.388;13.390;2023-04-20T02:55:42;101442.56;;;4.44;100.00
36092;BME280;22147;52.388;13.390;2023-04-20T02:58:11;101438.69;;;4.40;100.00
36092;BME280;22147;52.388;13.390;2023-04-20T03:00:39;101446.69;;;4.46;100.00
36092;BME280;22147;52.388;13.390;2023-04-20T03:03:09;101443.72;;;4.58;100.00
36092;BME280;22147;52.388;13.390;2023-04-20T03:05:39;101450.38;;;4.73;100.00
36092;BME280;22147;52.388;13.390;2023-04-20T03:08:07;101449.22;;;4.58;100.00
36092;BME280;22147;52.388;13.390;2023-04-20T03:10:36;101444.50;;;4.48;100.00
36092;BME280;22147;52.388;13.390;2023-04-20T03:13:04;101442.03;;;4.47;100.00
36092;BME280;22147;52.388;13.390;2023-04-20T03:15:33;101445.88;;;4.46;100.00
36092;BME280;22147;52.388;13.390;2023-04-20T03:18:01;101441.47;;;4.45;100.00
36092;BME280;22147;52.388;13.390;2023-04-20T03:20:30;101443.94;;;4.41;100.00
36092;BME280;22147;52.388;13.390;2023-04-20T03:22:58;101439.78;;;4.39;100.00
36092;BME280;22147;52.388;13.390;2023-04-20T03:25:26;101435.94;;;4.35;100.00
36092;BME280;22147;52.388;13.390;2023-04-20T03:32:59;101459.06;;;4.44;100.00
36092;BME280;22147;52.388;13.390;2023-04-20T03:35:29;101464.91;;;4.58;100.00
36092;BME280;22147;52.388;13.390;2023-04-20T03:37:59;101458.84;;;4.61;100.00
36092;BME280;22147;52.388;13.390;2023-04-20T03:40:30;101463.25;;;4.62;100.00
36092;BME280;22147;52.388;13.390;2023-04-20T03:42:59;101461.84;;;4.54;100.00
36092;BME280;22147;52.388;13.390;2023-04-20T03:45:29;101467.91;;;4.56;100.00
36092;BME280;22147;52.388;13.390;2023-04-20T03:47:59;101468.16;;;4.55;100.00
36092;BME280;22147;52.388;13.390;2023-04-20T03:50:29;101466.84;;;4.57;100.00
36092;BME280;22147;52.388;13.390;2023-04-20T03:52:59;101459.34;;;4.53;100.00
36092;BME280;22147;52.388;13.390;2023-04-20T03:55:29;101459.13;;;4.59;100.00
36092;BME280;22147;52.388;13.390;2023-04-20T03:57:58;101453.03;;;4.52;100.00
36092;BME280;22147;52.388;13.390;2023-04-20T04:00:28;101457.47;;;4.53;100.00
36092;BME280;22147;52.388;13.390;2023-04-20T04:02:58;101461.00;;;4.48;100.00
36092;BME280;22147;52.388;13.390;2023-04-20T04:05:28;101461.28;;;4.47;100.00
36092;BME280;22147;52.388;13.390;2023-04-20T04:07:59;101462.94;;;4.48;100.00
36092;BME280;22147;52.388;13.390;2023-04-20T04:10:29;101460.22;;;4.53;100.00
36092;BME280;22147;52.388;13.390;2023-04-20T04:12:58;101463.03;;;4.79;100.00
36092;BME280;22147;52.388;13.390;2023-04-20T04:15:28;101471.56;;;4.72;100.00
36092;BME280;22147;52.388;13.390;2023-04-20T04:17:58;101481.44;;;4.68;100.00
36092;BME280;22147;52.388;13.390;2023-04-20T04:20:28;101480.28;;;4.59;100.00
36092;BME280;22147;52.388;13.390;2023-04-20T04:22:58;101478.91;;;4.56;100.00
36092;BME280;22147;52.388;13.390;2023-04-20T04:25:27;101479.56;;;4.84;100.00
36092;BME280;22147;52.388;13.390;2023-04-20T04:27:58;101480.59;;;4.67;100.00
36092;BME280;22147;52.388;13.390;2023-04-20T04:30:28;101475.66;;;4.59;100.00
36092;BME280;22147;52.388;13.390;2023-04-20T04:32:58;101484.13;;;4.53;100.00
36092;BME280;22147;52.388;13.390;2023-04-20T04:35:28;101480.03;;;4.55;100.00
36092;BME280;22147;52.388;13.390;2023-04-20T04:37:59;101477.22;;;4.45;100.00
36092;BME280;22147;52.388;13.390;2023-04-20T04:40:29;101484.97;;;4.53;100.00
36092;BME280;22147;52.388;13.390;2023-04-20T04:43:01;101493.44;;;4.46;100.00
36092;BME280;22147;52.388;13.390;2023-04-20T04:45:31;101502.00;;;4.50;100.00
36092;BME280;22147;52.388;13.390;2023-04-20T04:48:01;101498.22;;;4.66;100.00
36092;BME280;22147;52.388;13.390;2023-04-20T04:50:32;101493.78;;;4.60;100.00
36092;BME280;22147;52.388;13.390;2023-04-20T04:53:03;101501.22;;;4.65;100.00
36092;BME280;22147;52.388;13.390;2023-04-20T04:55:32;101505.06;;;4.54;100.00
36092;BME280;22147;52.388;13.390;2023-04-20T04:58:03;101488.75;;;4.42;100.00
36092;BME280;22147;52.388;13.390;2023-04-20T05:00:33;101493.13;;;4.38;100.00
36092;BME280;22147;52.388;13.390;2023-04-20T05:03:02;101490.66;;;4.36;100.00
36092;BME280;22147;52.388;13.390;2023-04-20T05:05:31;101490.66;;;4.36;100.00
36092;BME280;22147;52.388;13.390;2023-04-20T05:07:59;101493.19;;;4.43;100.00
36092;BME280;22147;52.388;13.390;2023-04-20T05:10:28;101497.66;;;4.69;100.00
36092;BME280;22147;52.388;13.390;2023-04-20T05:12:56;101500.94;;;4.61;100.00
36092;BME280;22147;52.388;13.390;2023-04-20T05:15:28;101499.91;;;4.73;100.00
36092;BME280;22147;52.388;13.390;2023-04-20T05:17:56;101508.16;;;4.78;100.00
36092;BME280;22147;52.388;13.390;2023-04-20T05:20:24;101508.97;;;4.78;100.00
36092;BME280;22147;52.388;13.390;2023-04-20T05:22:53;101517.22;;;4.78;100.00
36092;BME280;22147;52.388;13.390;2023-04-20T05:25:22;101519.16;;;4.78;100.00
36092;BME280;22147;52.388;13.390;2023-04-20T05:27:50;101511.19;;;4.81;100.00
36092;BME280;22147;52.388;13.390;2023-04-20T05:30:18;101513.69;;;4.83;100.00
36092;BME280;22147;52.388;13.390;2023-04-20T05:32:50;101519.19;;;4.88;100.00
36092;BME280;22147;52.388;13.390;2023-04-20T05:35:21;101522.50;;;4.85;100.00
36092;BME280;22147;52.388;13.390;2023-04-20T05:37:51;101523.88;;;4.87;100.00
36092;BME280;22147;52.388;13.390;2023-04-20T05:40:21;101520.03;;;4.88;100.00
36092;BME280;22147;52.388;13.390;2023-04-20T05:42:51;101511.53;;;5.05;100.00
36092;BME280;22147;52.388;13.390;2023-04-20T05:45:21;101514.88;;;5.13;100.00
36092;BME280;22147;52.388;13.390;2023-04-20T05:47:55;101513.47;;;5.10;100.00
36092;BME280;22147;52.388;13.390;2023-04-20T05:50:26;101519.56;;;5.17;100.00
36092;BME280;22147;52.388;13.390;2023-04-20T05:52:56;101519.81;;;5.10;100.00
36092;BME280;22147;52.388;13.390;2023-04-20T05:55:26;101516.84;;;5.43;100.00
36092;BME280;22147;52.388;13.390;2023-04-20T05:57:56;101524.78;;;5.29;100.00
36092;BME280;22147;52.388;13.390;2023-04-20T06:00:26;101526.44;;;5.20;100.00
36092;BME280;22147;52.388;13.390;2023-04-20T06:02:56;101527.53;;;5.29;100.00
36092;BME280;22147;52.388;13.390;2023-04-20T06:05:26;101536.94;;;5.28;100.00
36092;BME280;22147;52.388;13.390;2023-04-20T06:07:56;101539.13;;;5.21;100.00
36092;BME280;22147;52.388;13.390;2023-04-20T06:10:26;101526.69;;;5.18;100.00
36092;BME280;22147;52.388;13.390;2023-04-20T06:13:01;101527.00;;;5.17;100.00
36092;BME280;22147;52.388;13.390;2023-04-20T06:15:30;101542.66;;;5.16;100.00
36092;BME280;22147;52.388;13.390;2023-04-20T06:18:01;101532.78;;;5.20;100.00
36092;BME280;22147;52.388;13.390;2023-04-20T06:20:31;101549.88;;;5.48;100.00
36092;BME280;22147;52.388;13.390;2023-04-20T06:23:00;101536.66;;;5.45;100.00
36092;BME280;22147;52.388;13.390;2023-04-20T06:25:30;101529.78;;;5.32;100.00
36092;BME280;22147;52.388;13.390;2023-04-20T06:28:00;101522.91;;;5.55;100.00
36092;BME280;22147;52.388;13.390;2023-04-20T06:30:30;101535.03;;;5.54;100.00
36092;BME280;22147;52.388;13.390;2023-04-20T06:33:02;101543.28;;;5.49;100.00
36092;BME280;22147;52.388;13.390;2023-04-20T06:35:32;101547.16;;;5.53;100.00
36092;BME280;22147;52.388;13.390;2023-04-20T06:38:02;101546.31;;;5.63;100.00
36092;BME280;22147;52.388;13.390;2023-04-20T06:40:31;101548.56;;;5.86;100.00
36092;BME280;22147;52.388;13.390;2023-04-20T06:43:01;101545.78;;;5.91;100.00
36092;BME280;22147;52.388;13.390;2023-04-20T06:45:31;101543.56;;;5.94;100.00
36092;BME280;22147;52.388;13.390;2023-04-20T06:48:03;101549.09;;;5.99;100.00
36092;BME280;22147;52.388;13.390;2023-04-20T06:50:34;101567.56;;;6.14;100.00
36092;BME280;22147;52.388;13.390;2023-04-20T06:53:03;101556.00;;;5.96;100.00
36092;BME280;22147;52.388;13.390;2023-04-20T06:55:33;101562.06;;;5.98;100.00
36092;BME280;22147;52.388;13.390;2023-04-20T06:58:02;101572.28;;;6.08;100.00
36092;BME280;22147;52.388;13.390;2023-04-20T07:00:31;101559.28;;;6.24;100.00
36092;BME280;22147;52.388;13.390;2023-04-20T07:02:59;101558.19;;;6.20;100.00
36092;BME280;22147;52.388;13.390;2023-04-20T07:05:31;101563.53;;;6.81;100.00
36092;BME280;22147;52.388;13.390;2023-04-20T07:07:59;101566.38;;;7.21;100.00
36092;BME280;22147;52.388;13.390;2023-04-20T07:10:28;101561.44;;;7.12;100.00
36092;BME280;22147;52.388;13.390;2023-04-20T07:12:56;101559.31;;;6.99;100.00
36092;BME280;22147;52.388;13.390;2023-04-20T07:15:24;101568.72;;;6.93;100.00
36092;BME280;22147;52.388;13.390;2023-04-20T07:17:53;101563.78;;;6.85;100.00
36092;BME280;22147;52.388;13.390;2023-04-20T07:20:21;101566.09;;;7.17;100.00
36092;BME280;22147;52.388;13.390;2023-04-20T07:22:50;101571.72;;;7.02;100.00
36092;BME280;22147;52.388;13.390;2023-04-20T07:25:18;101571.91;;;6.61;100.00
36092;BME280;22147;52.388;13.390;2023-04-20T07:27:47;101580.59;;;6.93;100.00
36092;BME280;22147;52.388;13.390;2023-04-20T07:30:15;101579.53;;;6.79;100.00
36092;BME280;22147;52.388;13.390;2023-04-20T07:32:44;101578.66;;;6.94;100.00
36092;BME280;22147;52.388;13.390;2023-04-20T07:35:12;101570.09;;;7.01;100.00
36092;BME280;22147;52.388;13.390;2023-04-20T07:37:40;101569.91;;;6.82;100.00
36092;BME280;22147;52.388;13.390;2023-04-20T07:40:09;101573.41;;;6.98;100.00
36092;BME280;22147;52.388;13.390;2023-04-20T07:42:37;101575.06;;;6.99;100.00
36092;BME280;22147;52.388;13.390;2023-04-20T07:45:07;101576.97;;;6.98;100.00
36092;BME280;22147;52.388;13.390;2023-04-20T07:47:38;101583.44;;;7.28;100.00
36092;BME280;22147;52.388;13.390;2023-04-20T07:50:06;101578.28;;;7.11;100.00
36092;BME280;22147;52.388;13.390;2023-04-20T07:52:35;101579.59;;;7.29;100.00
36092;BME280;22147;52.388;13.390;2023-04-20T07:55:05;101584.63;;;7.17;100.00
36092;BME280;22147;52.388;13.390;2023-04-20T07:57:36;101597.56;;;7.26;100.00
36092;BME280;22147;52.388;13.390;2023-04-20T08:00:07;101582.22;;;7.00;100.00
36092;BME280;22147;52.388;13.390;2023-04-20T08:02:38;101578.91;;;6.98;100.00
36092;BME280;22147;52.388;13.390;2023-04-20T08:05:08;101582.44;;;7.13;100.00
36092;BME280;22147;52.388;13.390;2023-04-20T08:07:39;101582.31;;;7.34;100.00
36092;BME280;22147;52.388;13.390;2023-04-20T08:10:09;101588.06;;;7.43;100.00
36092;BME280;22147;52.388;13.390;2023-04-20T08:12:39;101584.22;;;7.83;100.00
36092;BME280;22147;52.388;13.390;2023-04-20T08:15:10;101585.34;;;8.11;100.00
36092;BME280;22147;52.388;13.390;2023-04-20T08:17:40;101582.56;;;8.11;100.00
36092;BME280;22147;52.388;13.390;2023-04-20T08:20:10;101585.97;;;8.32;100.00
36092;BME280;22147;52.388;13.390;2023-04-20T08:22:40;101587.00;;;8.42;100.00
36092;BME280;22147;52.388;13.390;2023-04-20T08:25:10;101588.31;;;8.73;100.00
36092;BME280;22147;52.388;13.390;2023-04-20T08:27:40;101595.84;;;9.16;100.00
36092;BME280;22147;52.388;13.390;2023-04-20T08:30:10;101593.22;;;9.25;100.00
36092;BME280;22147;52.388;13.390;2023-04-20T08:32:40;101593.97;;;9.11;100.00
36092;BME280;22147;52.388;13.390;2023-04-20T08:35:10;101592.97;;;9.02;100.00
36092;BME280;22147;52.388;13.390;2023-04-20T08:37:40;101598.69;;;9.11;100.00
36092;BME280;22147;52.388;13.390;2023-04-20T08:40:12;101601.06;;;8.74;100.00
36092;BME280;22147;52.388;13.390;2023-04-20T08:42:42;101594.50;;;8.41;100.00
36092;BME280;22147;52.388;13.390;2023-04-20T08:45:11;101588.69;;;8.43;100.00
36092;BME280;22147;52.388;13.390;2023-04-20T08:47:43;101596.50;;;8.30;100.00
36092;BME280;22147;52.388;13.390;2023-04-20T08:50:15;101602.34;;;8.29;100.00
36092;BME280;22147;52.388;13.390;2023-04-20T08:52:45;101598.03;;;8.12;100.00
36092;BME280;22147;52.388;13.390;2023-04-20T08:55:17;101592.09;;;8.00;100.00
36092;BME280;22147;52.388;13.390;2023-04-20T08:57:47;101588.88;;;7.88;100.00
36092;BME280;22147;52.388;13.390;2023-04-20T09:00:21;101595.88;;;7.75;100.00
36092;BME280;22147;52.388;13.390;2023-04-20T09:02:55;101596.84;;;7.94;100.00
36092;BME280;22147;52.388;13.390;2023-04-20T09:05:29;101594.69;;;7.86;100.00
36092;BME280;22147;52.388;13.390;2023-04-20T09:08:00;101594.47;;;7.78;100.00
36092;BME280;22147;52.388;13.390;2023-04-20T09:10:44;101590.03;;;7.77;100.00
36092;BME280;22147;52.388;13.390;2023-04-20T09:13:22;101594.41;;;7.88;100.00
36092;BME280;22147;52.388;13.390;2023-04-20T09:15:52;101598.47;;;7.95;100.00
36092;BME280;22147;52.388;13.390;2023-04-20T09:18:22;101603.03;;;7.81;100.00
36092;BME280;22147;52.388;13.390;2023-04-20T09:20:53;101599.34;;;7.91;100.00
36092;BME280;22147;52.388;13.390;2023-04-20T09:23:23;101586.44;;;7.81;100.00
36092;BME280;22147;52.388;13.390;2023-04-20T09:25:53;101597.25;;;7.78;100.00
36092;BME280;22147;52.388;13.390;2023-04-20T09:28:22;101587.91;;;7.68;100.00
36092;BME280;22147;52.388;13.390;2023-04-20T09:30:52;101592.59;;;7.68;100.00
36092;BME280;22147;52.388;13.390;2023-04-20T09:33:27;101593.41;;;7.73;100.00
36092;BME280;22147;52.388;13.390;2023-04-20T09:36:04;101585.97;;;8.03;100.00
36092;BME280;22147;52.388;13.390;2023-04-20T09:38:35;101578.81;;;7.97;100.00
36092;BME280;22147;52.388;13.390;2023-04-20T09:41:05;101581.84;;;8.01;100.00
36092;BME280;22147;52.388;13.390;2023-04-20T09:43:36;101580.28;;;8.19;100.00
36092;BME280;22147;52.388;13.390;2023-04-20T09:46:06;101571.34;;;8.27;100.00
36092;BME280;22147;52.388;13.390;2023-04-20T09:48:37;101577.63;;;8.38;100.00
36092;BME280;22147;52.388;13.390;2023-04-20T09:51:07;101572.13;;;8.62;100.00
36092;BME280;22147;52.388;13.390;2023-04-20T09:53:38;101569.53;;;8.70;100.00
36092;BME280;22147;52.388;13.390;2023-04-20T09:56:08;101570.13;;;8.91;100.00
36092;BME280;22147;52.388;13.390;2023-04-20T09:58:41;101567.31;;;9.15;100.00
36092;BME280;22147;52.388;13.390;2023-04-20T10:01:14;101572.56;;;9.17;100.00
36092;BME280;22147;52.388;13.390;2023-04-20T10:03:44;101566.63;;;9.62;100.00
36092;BME280;22147;52.388;13.390;2023-04-20T10:06:25;101568.47;;;9.85;100.00
36092;BME280;22147;52.388;13.390;2023-04-20T10:08:59;101567.06;;;9.69;100.00
36092;BME280;22147;52.388;13.390;2023-04-20T10:14:23;101567.09;;;9.50;100.00
36092;BME280;22147;52.388;13.390;2023-04-20T10:17:08;101570.97;;;9.68;100.00
36092;BME280;22147;52.388;13.390;2023-04-20T10:19:45;101577.47;;;9.77;100.00
36092;BME280;22147;52.388;13.390;2023-04-20T10:22:27;101577.31;;;9.87;100.00
36092;BME280;22147;52.388;13.390;2023-04-20T10:25:16;101579.47;;;9.38;100.00
36092;BME280;22147;52.388;13.390;2023-04-20T10:27:59;101579.59;;;9.66;100.00
36092;BME280;22147;52.388;13.390;2023-04-20T10:30:34;101578.13;;;9.88;100.00
36092;BME280;22147;52.388;13.390;2023-04-20T10:33:07;101576.13;;;9.93;100.00
36092;BME280;22147;52.388;13.390;2023-04-20T10:38:34;101575.25;;;10.72;100.00
36092;BME280;22147;52.388;13.390;2023-04-20T10:41:10;101563.00;;;10.59;100.00
36092;BME280;22147;52.388;13.390;2023-04-20T10:43:41;101558.69;;;10.67;100.00
36092;BME280;22147;52.388;13.390;2023-04-20T10:46:19;101555.50;;;10.74;100.00
36092;BME280;22147;52.388;13.390;2023-04-20T10:48:59;101546.53;;;10.77;100.00
36092;BME280;22147;52.388;13.390;2023-04-20T10:51:30;101545.25;;;11.25;100.00
36092;BME280;22147;52.388;13.390;2023-04-20T10:54:03;101541.22;;;11.31;100.00
36092;BME280;22147;52.388;13.390;2023-04-20T10:56:50;101541.50;;;10.65;100.00
36092;BME280;22147;52.388;13.390;2023-04-20T10:59:23;101539.34;;;10.62;100.00
36092;BME280;22147;52.388;13.390;2023-04-20T11:01:51;101544.06;;;11.03;100.00
36092;BME280;22147;52.388;13.390;2023-04-20T11:04:31;101543.84;;;11.36;100.00
36092;BME280;22147;52.388;13.390;2023-04-20T11:07:09;101543.28;;;11.25;100.00
36092;BME280;22147;52.388;13.390;2023-04-20T11:09:42;101545.84;;;11.58;100.00
36092;BME280;22147;52.388;13.390;2023-04-20T11:12:16;101540.56;;;11.34;100.00
36092;BME280;22147;52.388;13.390;2023-04-20T11:14:55;101550.13;;;11.41;100.00
36092;BME280;22147;52.388;13.390;2023-04-20T11:17:35;101550.25;;;10.86;100.00
36092;BME280;22147;52.388;13.390;2023-04-20T11:20:14;101548.50;;;10.90;100.00
36092;BME280;22147;52.388;13.390;2023-04-20T11:22:56;101549.50;;;10.67;100.00
36092;BME280;22147;52.388;13.390;2023-04-20T11:25:27;101537.19;;;10.59;100.00
36092;BME280;22147;52.388;13.390;2023-04-20T11:28:07;101548.41;;;10.68;100.00
36092;BME280;22147;52.388;13.390;2023-04-20T11:30:42;101545.50;;;10.73;100.00
36092;BME280;22147;52.388;13.390;2023-04-20T11:33:12;101536.78;;;10.66;100.00
36092;BME280;22147;52.388;13.390;2023-04-20T11:35:43;101539.22;;;10.53;100.00
36092;BME280;22147;52.388;13.390;2023-04-20T11:38:13;101539.94;;;10.45;100.00
36092;BME280;22147;52.388;13.390;2023-04-20T11:40:42;101529.47;;;10.42;100.00
36092;BME280;22147;52.388;13.390;2023-04-20T11:43:12;101520.69;;;10.35;100.00
36092;BME280;22147;52.388;13.390;2023-04-20T11:45:42;101522.88;;;10.52;100.00
36092;BME280;22147;52.388;13.390;2023-04-20T11:48:12;101514.13;;;10.86;100.00
36092;BME280;22147;52.388;13.390;2023-04-20T11:50:42;101515.66;;;10.92;100.00
36092;BME280;22147;52.388;13.390;2023-04-20T11:53:12;101516.09;;;11.22;100.00
36092;BME280;22147;52.388;13.390;2023-04-20T11:55:43;101509.00;;;11.52;100.00
36092;BME280;22147;52.388;13.390;2023-04-20T11:58:13;101504.31;;;11.61;100.00
36092;BME280;22147;52.388;13.390;2023-04-20T12:00:43;101515.31;;;11.67;100.00
36092;BME280;22147;52.388;13.390;2023-04-20T12:03:12;101507.59;;;11.86;100.00
36092;BME280;22147;52.388;13.390;2023-04-20T12:05:43;101502.00;;;12.49;100.00
36092;BME280;22147;52.388;13.390;2023-04-20T12:08:13;101500.81;;;12.72;100.00
36092;BME280;22147;52.388;13.390;2023-04-20T12:10:43;101498.16;;;12.76;100.00
36092;BME280;22147;52.388;13.390;2023-04-20T12:13:12;101497.81;;;12.69;100.00
36092;BME280;22147;52.388;13.390;2023-04-20T12:15:43;101488.38;;;12.87;100.00
36092;BME280;22147;52.388;13.390;2023-04-20T12:18:13;101490.50;;;13.16;100.00
36092;BME280;22147;52.388;13.390;2023-04-20T12:20:44;101494.00;;;13.39;100.00
36092;BME280;22147;52.388;13.390;2023-04-20T12:23:15;101490.19;;;13.09;100.00
36092;BME280;22147;52.388;13.390;2023-04-20T12:25:43;101480.53;;;13.41;100.00
36092;BME280;22147;52.388;13.390;2023-04-20T12:28:12;101494.47;;;13.24;100.00
36092;BME280;22147;52.388;13.390;2023-04-20T12:30:40;101480.19;;;13.69;100.00
36092;BME280;22147;52.388;13.390;2023-04-20T12:33:08;101482.97;;;13.78;96.98
36092;BME280;22147;52.388;13.390;2023-04-20T12:35:37;101476.03;;;13.93;95.27
36092;BME280;22147;52.388;13.390;2023-04-20T12:38:05;101473.56;;;13.91;95.54
36092;BME280;22147;52.388;13.390;2023-04-20T12:40:34;101480.88;;;14.13;94.32
36092;BME280;22147;52.388;13.390;2023-04-20T12:43:04;101478.22;;;13.78;96.84
36092;BME280;22147;52.388;13.390;2023-04-20T12:45:34;101468.19;;;13.77;95.44
36092;BME280;22147;52.388;13.390;2023-04-20T12:48:04;101460.91;;;13.94;96.48
36092;BME280;22147;52.388;13.390;2023-04-20T12:50:35;101460.31;;;14.27;92.66
36092;BME280;22147;52.388;13.390;2023-04-20T12:53:05;101455.88;;;14.25;92.75
36092;BME280;22147;52.388;13.390;2023-04-20T12:55:35;101450.91;;;13.93;94.33
36092;BME280;22147;52.388;13.390;2023-04-20T12:58:05;101453.59;;;13.72;94.88
36092;BME280;22147;52.388;13.390;2023-04-20T13:00:35;101446.31;;;13.88;96.78
36092;BME280;22147;52.388;13.390;2023-04-20T13:03:04;101453.91;;;13.79;100.00
36092;BME280;22147;52.388;13.390;2023-04-20T13:05:35;101445.03;;;13.77;97.42